Time;durP1;ratioP1;P1;durP2;ratioP2;P2;SDS_P1;SDS_P2;PMS_P1;PMS_P2;Temp;Humidity;BMP_temperature;BMP_pressure;BME280_temperature;BME280_humidity;BME280_pressure;Samples;Min_cycle;Max_cycle;Signal;HPM_P1;HPM_P2
2022/07/10 00:01:55;;;;;;;;;;;23.20;99.90;;;;;;5092082;28;20427;-72
2022/07/10 00:04:21;;;;;;;;;;;23.30;99.90;;;;;;5090368;28;19919;-72
2022/07/10 00:06:47;;;;;;;;;;;23.30;99.90;;;;;;5089909;28;19904;-72
2022/07/10 00:09:14;;;;;;;;;;;23.40;99.90;;;;;;5091244;28;19910;-72
2022/07/10 00:11:40;;;;;;;;;;;23.40;99.90;;;;;;5089570;28;20004;-72
2022/07/10 00:14:06;;;;;;;;;;;23.40;99.90;;;;;;5091522;28;19904;-72
2022/07/10 00:16:31;;;;;;;;;;;23.40;99.90;;;;;;5091508;28;19904;-72
2022/07/10 00:18:57;;;;;;;;;;;23.40;99.90;;;;;;5091524;28;19955;-73
2022/07/10 00:21:23;;;;;;;;;;;23.50;99.90;;;;;;5091316;28;20240;-72
2022/07/10 00:23:49;;;;;;;;;;;23.50;99.90;;;;;;5090581;28;19980;-72
2022/07/10 00:26:15;;;;;;;;;;;23.60;99.90;;;;;;5089584;28;19982;-71
2022/07/10 00:28:40;;;;;;;;;;;23.60;99.90;;;;;;5091326;28;19958;-72
2022/07/10 00:31:06;;;;;;;;;;;23.50;99.90;;;;;;5091124;28;19910;-72
2022/07/10 00:33:32;;;;;;;;;;;23.40;99.90;;;;;;5091299;28;19915;-71
2022/07/10 00:35:58;;;;;;;;;;;23.30;99.90;;;;;;5091183;28;19904;-72
2022/07/10 00:38:24;;;;;;;;;;;23.30;99.90;;;;;;5091058;28;19917;-72
2022/07/10 00:40:50;;;;;;;;;;;23.30;99.90;;;;;;5090984;28;19908;-72
2022/07/10 00:43:16;;;;;;;;;;;23.30;99.90;;;;;;5090770;28;19924;-71
2022/07/10 00:45:42;;;;;;;;;;;23.40;99.90;;;;;;5091156;28;19908;-71
2022/07/10 00:48:09;;;;;;;;;;;23.40;99.90;;;;;;5091006;28;20019;-72
2022/07/10 00:50:35;;;;;;;;;;;23.40;99.90;;;;;;5090812;28;19942;-72
2022/07/10 00:53:04;;;;;;;;;;;23.40;99.90;;;;;;5090902;28;19965;-71
2022/07/10 00:55:30;;;;;;;;;;;23.40;99.90;;;;;;5091193;28;20359;-71
2022/07/10 00:57:56;;;;;;;;;;;23.30;99.90;;;;;;5089064;28;20276;-72
2022/07/10 01:00:23;;;;;;;;;;;23.30;99.90;;;;;;5090933;28;19911;-72
2022/07/10 01:02:49;;;;;;;;;;;23.30;99.90;;;;;;5090574;28;20007;-71
2022/07/10 01:05:15;;;;;;;;;;;23.30;99.90;;;;;;5090779;28;19912;-72
2022/07/10 01:07:41;;;;;;;;;;;23.30;99.90;;;;;;5091034;28;19904;-72
2022/07/10 01:10:07;;;;;;;;;;;23.30;99.90;;;;;;5091251;28;19955;-72
2022/07/10 01:12:33;;;;;;;;;;;23.40;99.90;;;;;;5090572;28;20381;-72
2022/07/10 01:14:59;;;;;;;;;;;23.40;99.90;;;;;;5090962;28;19992;-72
2022/07/10 01:17:25;;;;;;;;;;;23.40;99.90;;;;;;5090826;28;19957;-71
2022/07/10 01:19:51;;;;;;;;;;;23.30;99.90;;;;;;5091037;28;19904;-72
2022/07/10 01:22:17;;;;;;;;;;;23.40;99.90;;;;;;5090571;28;19995;-72
2022/07/10 01:24:42;;;;;;;;;;;23.30;99.90;;;;;;5092296;28;19919;-72
2022/07/10 01:27:08;;;;;;;;;;;23.40;99.90;;;;;;5095105;28;19907;-71
2022/07/10 01:29:35;;;;;;;;;;;23.50;99.90;;;;;;5094376;28;20284;-71
2022/07/10 01:32:01;;;;;;;;;;;23.50;99.90;;;;;;5094294;28;19926;-71
2022/07/10 01:34:27;;;;;;;;;;;23.50;99.90;;;;;;5092777;28;20329;-72
2022/07/10 01:36:53;;;;;;;;;;;23.50;99.90;;;;;;5093671;28;19946;-72
2022/07/10 01:39:19;;;;;;;;;;;23.50;99.90;;;;;;5092819;28;19911;-71
2022/07/10 01:41:45;;;;;;;;;;;23.50;99.90;;;;;;5094331;28;19957;-72
2022/07/10 01:44:12;;;;;;;;;;;23.50;99.90;;;;;;5094087;28;19912;-72
2022/07/10 01:46:45;;;;;;;;;;;23.50;99.90;;;;;;5094491;28;19904;-73
2022/07/10 01:49:11;;;;;;;;;;;23.50;99.90;;;;;;5094013;28;19991;-73
2022/07/10 01:51:37;;;;;;;;;;;23.50;99.90;;;;;;5094203;28;20003;-72
2022/07/10 01:54:02;;;;;;;;;;;23.40;99.90;;;;;;5094137;28;20335;-72
2022/07/10 01:56:28;;;;;;;;;;;23.40;99.90;;;;;;5093969;28;20033;-73
2022/07/10 01:58:54;;;;;;;;;;;23.30;99.90;;;;;;5093836;28;19911;-73
2022/07/10 02:01:20;;;;;;;;;;;23.40;99.90;;;;;;5094140;28;20237;-72
2022/07/10 02:06:29;;;;;;;;;;;23.40;99.90;;;;;;5093877;28;20011;-73
2022/07/10 02:08:55;;;;;;;;;;;23.50;99.90;;;;;;5092202;28;19935;-72
2022/07/10 02:11:21;;;;;;;;;;;23.40;99.90;;;;;;5093466;28;19972;-72
2022/07/10 02:13:47;;;;;;;;;;;23.40;99.90;;;;;;5093566;28;19966;-72
2022/07/10 02:16:13;;;;;;;;;;;23.40;99.90;;;;;;5092079;28;19904;-72
2022/07/10 02:18:39;;;;;;;;;;;23.50;99.90;;;;;;5093759;28;20312;-72
2022/07/10 02:21:05;;;;;;;;;;;23.50;99.90;;;;;;5093393;28;19908;-72
2022/07/10 02:23:31;;;;;;;;;;;23.50;99.90;;;;;;5093363;28;19915;-72
2022/07/10 02:25:56;;;;;;;;;;;23.50;99.90;;;;;;5093524;28;19904;-72
2022/07/10 02:28:22;;;;;;;;;;;23.50;99.90;;;;;;5093614;28;20019;-72
2022/07/10 02:30:48;;;;;;;;;;;23.50;99.90;;;;;;5093316;28;19904;-73
2022/07/10 02:33:14;;;;;;;;;;;23.30;99.90;;;;;;5093627;28;19962;-72
2022/07/10 02:35:39;;;;;;;;;;;23.30;99.90;;;;;;5092250;28;19904;-72
2022/07/10 02:38:05;;;;;;;;;;;23.20;99.90;;;;;;5091407;28;20458;-72
2022/07/10 02:40:31;;;;;;;;;;;23.10;99.90;;;;;;5093317;28;19928;-72
2022/07/10 02:42:57;;;;;;;;;;;23.20;99.90;;;;;;5092982;28;20356;-72
2022/07/10 02:45:23;;;;;;;;;;;23.20;99.90;;;;;;5093016;28;20363;-72
2022/07/10 02:47:48;;;;;;;;;;;23.30;99.90;;;;;;5093097;28;19946;-72
2022/07/10 02:50:14;;;;;;;;;;;23.20;99.90;;;;;;5092829;28;19903;-72
2022/07/10 02:52:40;;;;;;;;;;;23.10;99.90;;;;;;5092896;28;19908;-72
2022/07/10 02:55:06;;;;;;;;;;;23.00;99.90;;;;;;5091251;28;19904;-72
2022/07/10 02:57:32;;;;;;;;;;;23.00;99.90;;;;;;5093166;28;19915;-72
2022/07/10 03:00:02;;;;;;;;;;;23.10;99.90;;;;;;5093110;28;19904;-72
2022/07/10 03:02:27;;;;;;;;;;;23.10;99.90;;;;;;5092640;28;19915;-73
2022/07/10 03:04:53;;;;;;;;;;;23.10;99.90;;;;;;5092707;28;19923;-72
2022/07/10 03:07:19;;;;;;;;;;;23.10;99.90;;;;;;5092517;28;19904;-72
2022/07/10 03:09:45;;;;;;;;;;;23.10;99.90;;;;;;5091000;28;19970;-72
2022/07/10 03:12:10;;;;;;;;;;;23.00;99.90;;;;;;5092429;28;20015;-72
2022/07/10 03:14:36;;;;;;;;;;;23.10;99.90;;;;;;5092710;28;19904;-73
2022/07/10 03:17:02;;;;;;;;;;;23.20;99.90;;;;;;5092505;28;19943;-73
2022/07/10 03:19:28;;;;;;;;;;;23.20;99.90;;;;;;5091036;28;19904;-73
2022/07/10 03:21:54;;;;;;;;;;;23.20;99.90;;;;;;5092352;28;19924;-73
2022/07/10 03:24:20;;;;;;;;;;;23.20;99.90;;;;;;5092430;28;19912;-73
2022/07/10 03:26:45;;;;;;;;;;;23.10;99.90;;;;;;5092228;28;20021;-74
2022/07/10 03:29:11;;;;;;;;;;;23.10;99.90;;;;;;5092542;28;20411;-72
2022/07/10 03:31:37;;;;;;;;;;;23.10;99.90;;;;;;5092311;28;19933;-72
2022/07/10 03:34:03;;;;;;;;;;;23.10;99.90;;;;;;5092332;28;19904;-72
2022/07/10 03:36:29;;;;;;;;;;;23.10;99.90;;;;;;5092275;28;20034;-72
2022/07/10 03:38:54;;;;;;;;;;;23.10;99.90;;;;;;5092292;28;20049;-72
2022/07/10 03:41:20;;;;;;;;;;;23.10;99.90;;;;;;5092017;28;19914;-72
2022/07/10 03:43:47;;;;;;;;;;;23.10;99.90;;;;;;5090437;28;19912;-72
2022/07/10 03:46:12;;;;;;;;;;;23.20;99.90;;;;;;5092424;28;20044;-73
2022/07/10 03:48:38;;;;;;;;;;;23.10;99.90;;;;;;5090275;28;19917;-73
2022/07/10 03:51:04;;;;;;;;;;;23.10;99.90;;;;;;5091968;28;20344;-73
2022/07/10 03:53:30;;;;;;;;;;;23.10;99.90;;;;;;5091877;28;19926;-73
2022/07/10 03:55:56;;;;;;;;;;;23.00;99.90;;;;;;5092015;28;19904;-72
2022/07/10 03:58:22;;;;;;;;;;;23.00;99.90;;;;;;5091727;28;19926;-73
2022/07/10 04:00:47;;;;;;;;;;;23.00;99.90;;;;;;5092013;28;19930;-72
2022/07/10 04:03:13;;;;;;;;;;;23.00;99.90;;;;;;5091491;28;19982;-71
2022/07/10 04:05:39;;;;;;;;;;;23.00;99.90;;;;;;5091832;28;19908;-73
2022/07/10 04:08:06;;;;;;;;;;;23.10;99.90;;;;;;5090055;28;19916;-72
2022/07/10 04:10:31;;;;;;;;;;;23.20;99.90;;;;;;5091618;28;19904;-73
2022/07/10 04:12:57;;;;;;;;;;;23.20;99.90;;;;;;5091208;28;19923;-72
2022/07/10 04:15:24;;;;;;;;;;;23.30;99.90;;;;;;5091407;28;19911;-72
2022/07/10 04:17:50;;;;;;;;;;;23.30;99.90;;;;;;5091373;28;20015;-72
2022/07/10 04:20:16;;;;;;;;;;;23.30;99.90;;;;;;5091272;28;19911;-72
2022/07/10 04:22:42;;;;;;;;;;;23.30;99.90;;;;;;5091543;28;19904;-72
2022/07/10 04:25:08;;;;;;;;;;;23.40;99.90;;;;;;5091277;28;19919;-72
2022/07/10 04:27:34;;;;;;;;;;;23.30;99.90;;;;;;5091504;28;20295;-72
2022/07/10 04:30:00;;;;;;;;;;;23.40;99.90;;;;;;5091307;28;19912;-73
2022/07/10 04:32:27;;;;;;;;;;;23.40;99.90;;;;;;5091370;28;19904;-73
2022/07/10 04:34:53;;;;;;;;;;;23.40;99.90;;;;;;5091721;28;20290;-73
2022/07/10 04:37:19;;;;;;;;;;;23.50;99.90;;;;;;5091459;28;19910;-73
2022/07/10 04:39:45;;;;;;;;;;;23.50;99.90;;;;;;5091630;28;20318;-73
2022/07/10 04:42:11;;;;;;;;;;;23.60;99.90;;;;;;5091119;28;19908;-73
2022/07/10 04:44:37;;;;;;;;;;;23.60;99.90;;;;;;5091114;28;19918;-73
2022/07/10 04:47:03;;;;;;;;;;;23.60;99.90;;;;;;5089804;28;20267;-72
2022/07/10 04:49:29;;;;;;;;;;;23.60;99.90;;;;;;5091191;28;19904;-72
2022/07/10 04:51:56;;;;;;;;;;;23.70;99.90;;;;;;5091262;28;19946;-72
2022/07/10 04:54:22;;;;;;;;;;;23.70;99.90;;;;;;5090977;28;19933;-72
2022/07/10 04:56:48;;;;;;;;;;;23.70;99.90;;;;;;5090990;28;19904;-72
2022/07/10 04:59:13;;;;;;;;;;;23.90;99.90;;;;;;5090023;28;19933;-72
2022/07/10 05:01:39;;;;;;;;;;;23.90;99.90;;;;;;5095176;28;20241;-73
2022/07/10 05:04:05;;;;;;;;;;;23.90;99.90;;;;;;5095060;28;19970;-73
2022/07/10 05:06:31;;;;;;;;;;;24.10;99.90;;;;;;5093672;28;20248;-73
2022/07/10 05:08:57;;;;;;;;;;;25.00;99.90;;;;;;5095509;28;19904;-72
2022/07/10 05:11:23;;;;;;;;;;;26.90;99.90;;;;;;5094875;28;19981;-73
2022/07/10 05:13:49;;;;;;;;;;;29.20;99.90;;;;;;5095208;28;19951;-73
2022/07/10 05:16:15;;;;;;;;;;;30.90;95.70;;;;;;5095007;28;19904;-73
2022/07/10 05:18:41;;;;;;;;;;;32.20;92.90;;;;;;5095102;28;20055;-73
2022/07/10 05:21:07;;;;;;;;;;;33.50;90.80;;;;;;5094801;28;19987;-73
2022/07/10 05:23:34;;;;;;;;;;;34.70;86.40;;;;;;5094975;28;20375;-73
2022/07/10 05:26:00;;;;;;;;;;;35.10;84.10;;;;;;5094776;28;20376;-74
2022/07/10 05:28:26;;;;;;;;;;;35.70;81.10;;;;;;5095245;28;19904;-73
2022/07/10 05:30:51;;;;;;;;;;;35.60;80.20;;;;;;5094822;28;19911;-73
2022/07/10 05:33:18;;;;;;;;;;;36.40;79.70;;;;;;5094643;28;19996;-73
2022/07/10 05:35:44;;;;;;;;;;;37.50;75.80;;;;;;5094679;28;19911;-72
2022/07/10 05:38:10;;;;;;;;;;;37.80;74.70;;;;;;5094387;28;20384;-73
2022/07/10 05:40:35;;;;;;;;;;;38.00;73.60;;;;;;5094418;28;19952;-73
2022/07/10 05:43:01;;;;;;;;;;;37.20;74.20;;;;;;5094539;28;19947;-73
2022/07/10 05:45:27;;;;;;;;;;;37.30;73.60;;;;;;5094385;28;19950;-73
2022/07/10 05:47:53;;;;;;;;;;;38.40;71.70;;;;;;5094507;28;19904;-74
2022/07/10 05:50:19;;;;;;;;;;;39.20;70.80;;;;;;5093997;28;19949;-74
2022/07/10 05:52:44;;;;;;;;;;;38.50;69.40;;;;;;5094052;28;20013;-73
2022/07/10 05:55:10;;;;;;;;;;;37.60;71.00;;;;;;5094008;28;19947;-74
2022/07/10 05:57:36;;;;;;;;;;;37.60;71.00;;;;;;5093840;28;20356;-73
2022/07/10 06:00:04;;;;;;;;;;;37.60;71.00;;;;;;5094131;28;19904;-74
2022/07/10 06:02:30;;;;;;;;;;;37.80;70.70;;;;;;5093637;28;19904;-73
2022/07/10 06:04:55;;;;;;;;;;;37.30;70.10;;;;;;5094061;28;20011;-74
2022/07/10 06:07:21;;;;;;;;;;;38.30;69.40;;;;;;5092019;28;19908;-74
2022/07/10 06:09:47;;;;;;;;;;;38.40;67.90;;;;;;5093680;28;19904;-74
2022/07/10 06:12:14;;;;;;;;;;;40.30;66.90;;;;;;5093361;28;19916;-74
2022/07/10 06:14:40;;;;;;;;;;;40.90;64.10;;;;;;5093574;28;20264;-73
2022/07/10 06:17:06;;;;;;;;;;;41.20;64.30;;;;;;5093758;28;20339;-74
2022/07/10 06:19:32;;;;;;;;;;;41.60;62.10;;;;;;5093925;28;19904;-73
2022/07/10 06:24:42;;;;;;;;;;;41.80;62.00;;;;;;5093765;28;19919;-73
2022/07/10 06:27:08;;;;;;;;;;;43.20;60.60;;;;;;5093576;28;19904;-74
2022/07/10 06:29:33;;;;;;;;;;;43.40;59.20;;;;;;5093758;28;19904;-74
2022/07/10 06:31:59;;;;;;;;;;;43.00;58.40;;;;;;5093409;28;19904;-73
2022/07/10 06:34:25;;;;;;;;;;;42.80;58.70;;;;;;5093276;28;19904;-73
2022/07/10 06:36:51;;;;;;;;;;;42.70;58.70;;;;;;5091883;28;20344;-73
2022/07/10 06:39:17;;;;;;;;;;;43.70;57.80;;;;;;5093394;28;19911;-75
2022/07/10 06:41:43;;;;;;;;;;;43.60;56.90;;;;;;5093106;28;19904;-73
2022/07/10 06:44:22;;;;;;;;;;;41.60;58.50;;;;;;5093238;28;19912;-73
2022/07/10 06:47:55;;;;;;;;;;;41.20;59.60;;;;;;5093132;28;19995;-74
2022/07/10 06:49:33;;;;;;;;;;;41.20;58.90;;;;;;5092844;28;19954;-73
2022/07/10 06:51:59;;;;;;;;;;;41.00;58.50;;;;;;5092971;28;19904;-73
2022/07/10 06:54:25;;;;;;;;;;;40.80;58.30;;;;;;5092868;28;20342;-73
2022/07/10 06:56:51;;;;;;;;;;;39.70;58.90;;;;;;5092885;28;19908;-74
2022/07/10 06:59:16;;;;;;;;;;;40.80;58.80;;;;;;5092741;28;19961;-74
2022/07/10 07:01:42;;;;;;;;;;;42.70;56.90;;;;;;5092676;28;19904;-74
2022/07/10 07:04:10;;;;;;;;;;;43.90;54.70;;;;;;5092525;28;19923;-74
2022/07/10 07:06:36;;;;;;;;;;;44.60;54.00;;;;;;5092664;28;19904;-74
2022/07/10 07:09:02;;;;;;;;;;;43.70;53.00;;;;;;5092939;28;20283;-74
2022/07/10 07:11:28;;;;;;;;;;;44.10;52.10;;;;;;5092507;28;19998;-73
2022/07/10 07:13:54;;;;;;;;;;;43.80;51.40;;;;;;5092445;28;19915;-74
2022/07/10 07:16:26;;;;;;;;;;;42.50;52.90;;;;;;5092954;28;19904;-73
2022/07/10 07:18:55;;;;;;;;;;;41.80;53.40;;;;;;5092627;28;19904;-73
2022/07/10 07:24:05;;;;;;;;;;;40.10;55.20;;;;;;5092873;28;20237;-73
2022/07/10 07:26:31;;;;;;;;;;;36.50;59.50;;;;;;5092355;28;20392;-73
2022/07/10 07:28:57;;;;;;;;;;;34.20;64.50;;;;;;5092059;28;20104;-73
2022/07/10 07:31:22;;;;;;;;;;;32.90;67.40;;;;;;5090696;28;19998;-73
2022/07/10 07:33:48;;;;;;;;;;;33.10;67.80;;;;;;5092436;28;19916;-73
2022/07/10 07:36:14;;;;;;;;;;;33.30;67.70;;;;;;5092585;28;19986;-73
2022/07/10 07:38:40;;;;;;;;;;;32.90;69.00;;;;;;5092663;28;19904;-74
2022/07/10 07:41:06;;;;;;;;;;;33.40;68.10;;;;;;5092697;28;20217;-74
2022/07/10 07:43:59;;;;;;;;;;;33.70;67.40;;;;;;5092029;28;20343;-73
2022/07/10 07:46:25;;;;;;;;;;;33.60;66.30;;;;;;5092078;28;19961;-73
2022/07/10 07:48:51;;;;;;;;;;;33.70;66.40;;;;;;5090491;28;19908;-73
2022/07/10 07:51:17;;;;;;;;;;;34.10;66.30;;;;;;5092410;28;19904;-73
2022/07/10 07:53:43;;;;;;;;;;;34.10;66.00;;;;;;5092624;28;19904;-73
2022/07/10 07:56:09;;;;;;;;;;;34.20;65.90;;;;;;5091963;28;19904;-73
2022/07/10 07:58:35;;;;;;;;;;;34.60;65.40;;;;;;5092128;28;19904;-73
2022/07/10 08:01:00;;;;;;;;;;;34.50;64.70;;;;;;5091770;28;19946;-73
2022/07/10 08:03:26;;;;;;;;;;;34.60;65.50;;;;;;5091907;28;19962;-72
2022/07/10 08:05:52;;;;;;;;;;;34.90;65.40;;;;;;5091621;28;19958;-72
2022/07/10 08:08:18;;;;;;;;;;;35.20;64.80;;;;;;5091400;28;20277;-72
2022/07/10 08:10:44;;;;;;;;;;;35.40;63.90;;;;;;5091705;28;19912;-73
2022/07/10 08:13:09;;;;;;;;;;;35.00;64.00;;;;;;5091164;28;20378;-73
2022/07/10 08:15:35;;;;;;;;;;;35.00;64.30;;;;;;5091362;28;19977;-73
2022/07/10 08:18:03;;;;;;;;;;;34.90;64.70;;;;;;5091609;28;19961;-74
2022/07/10 08:20:29;;;;;;;;;;;34.60;65.60;;;;;;5090897;28;19904;-74
2022/07/10 08:22:55;;;;;;;;;;;34.70;65.50;;;;;;5092588;28;19911;-75
2022/07/10 08:25:21;;;;;;;;;;;34.80;64.60;;;;;;5092536;28;19916;-74
2022/07/10 08:27:48;;;;;;;;;;;34.80;65.30;;;;;;5092402;28;20066;-74
2022/07/10 08:30:14;;;;;;;;;;;34.80;65.20;;;;;;5092352;28;20003;-74
2022/07/10 08:32:40;;;;;;;;;;;34.00;66.00;;;;;;5092325;28;19931;-74
2022/07/10 08:35:06;;;;;;;;;;;34.00;67.30;;;;;;5091021;28;19904;-74
2022/07/10 08:37:54;;;;;;;;;;;34.40;67.30;;;;;;5090677;28;19904;-73
2022/07/10 08:40:21;;;;;;;;;;;34.30;66.60;;;;;;5092299;28;19908;-73
2022/07/10 08:42:47;;;;;;;;;;;34.60;67.00;;;;;;5092079;28;20348;-72
2022/07/10 08:45:13;;;;;;;;;;;35.10;65.90;;;;;;5092045;28;19923;-73
2022/07/10 08:47:41;;;;;;;;;;;35.30;65.80;;;;;;5092367;28;20006;-73
2022/07/10 08:50:16;;;;;;;;;;;35.50;65.20;;;;;;5091913;28;19922;-73
2022/07/10 08:52:44;;;;;;;;;;;35.50;65.10;;;;;;5092366;28;19912;-73
2022/07/10 08:55:16;;;;;;;;;;;35.80;64.40;;;;;;5092017;28;19904;-73
2022/07/10 08:57:42;;;;;;;;;;;36.00;63.70;;;;;;5089317;28;19916;-72
2022/07/10 09:00:09;;;;;;;;;;;36.10;63.20;;;;;;5091091;28;19960;-73
2022/07/10 09:02:35;;;;;;;;;;;35.60;64.20;;;;;;5091306;28;20311;-72
2022/07/10 09:05:01;;;;;;;;;;;35.40;63.90;;;;;;5091005;28;19923;-73
2022/07/10 09:07:35;;;;;;;;;;;35.10;64.20;;;;;;5089486;28;19968;-73
2022/07/10 09:10:05;;;;;;;;;;;34.80;65.20;;;;;;5091117;28;19904;-72
2022/07/10 09:12:48;;;;;;;;;;;34.60;64.70;;;;;;5090914;28;19927;-73
2022/07/10 09:15:16;;;;;;;;;;;34.40;64.90;;;;;;5091459;28;19962;-73
2022/07/10 09:17:52;;;;;;;;;;;34.30;65.70;;;;;;5090863;28;19915;-73
2022/07/10 09:20:25;;;;;;;;;;;33.90;66.30;;;;;;5091192;28;19949;-73
2022/07/10 09:22:52;;;;;;;;;;;33.60;67.70;;;;;;5091371;28;20297;-73
2022/07/10 09:25:18;;;;;;;;;;;33.80;67.50;;;;;;5089497;28;19919;-73
2022/07/10 09:27:54;;;;;;;;;;;33.70;68.00;;;;;;5091129;28;19908;-73
2022/07/10 09:30:32;;;;;;;;;;;33.70;68.00;;;;;;5090847;28;19904;-72
2022/07/10 09:33:23;;;;;;;;;;;33.40;69.10;;;;;;5090671;28;19965;-73
2022/07/10 09:36:05;;;;;;;;;;;33.70;69.60;;;;;;5090984;28;19939;-73
2022/07/10 09:38:44;;;;;;;;;;;33.80;69.40;;;;;;5090610;28;19931;-73
2022/07/10 09:44:14;;;;;;;;;;;33.90;69.30;;;;;;5090871;28;19979;-74
2022/07/10 09:46:43;;;;;;;;;;;33.70;68.80;;;;;;5093242;28;19953;-73
2022/07/10 09:49:13;;;;;;;;;;;34.00;69.40;;;;;;5094463;28;20352;-73
2022/07/10 09:51:42;;;;;;;;;;;34.30;69.10;;;;;;5094724;28;19912;-73
2022/07/10 09:54:09;;;;;;;;;;;34.20;68.50;;;;;;5094538;28;19916;-73
2022/07/10 09:56:42;;;;;;;;;;;34.20;69.00;;;;;;5094361;28;20069;-73
2022/07/10 09:59:12;;;;;;;;;;;33.90;70.00;;;;;;5094233;28;19907;-74
2022/07/10 10:01:41;;;;;;;;;;;34.00;70.00;;;;;;5094102;28;20276;-73
2022/07/10 10:04:08;;;;;;;;;;;33.60;70.20;;;;;;5093746;28;19976;-72
2022/07/10 10:06:36;;;;;;;;;;;33.20;71.40;;;;;;5093872;28;19952;-74
2022/07/10 10:09:05;;;;;;;;;;;33.00;71.90;;;;;;5094006;28;19908;-73
2022/07/10 10:11:32;;;;;;;;;;;32.60;71.90;;;;;;5093633;28;19916;-74
2022/07/10 10:13:58;;;;;;;;;;;32.50;73.30;;;;;;5094078;28;19972;-74
2022/07/10 10:16:25;;;;;;;;;;;32.50;73.70;;;;;;5094464;28;19904;-74
2022/07/10 10:21:36;;;;;;;;;;;32.60;73.70;;;;;;5094397;28;20248;-74
2022/07/10 10:24:02;;;;;;;;;;;32.70;73.20;;;;;;5093701;28;20010;-73
2022/07/10 10:26:28;;;;;;;;;;;32.60;74.00;;;;;;5093580;28;19904;-73
2022/07/10 10:28:59;;;;;;;;;;;32.60;73.70;;;;;;5093875;28;19904;-73
2022/07/10 10:31:26;;;;;;;;;;;32.30;73.60;;;;;;5093196;28;19911;-73
2022/07/10 10:33:55;;;;;;;;;;;32.30;73.50;;;;;;5093438;28;20224;-73
2022/07/10 10:36:48;;;;;;;;;;;32.60;73.30;;;;;;5093427;28;19904;-74
2022/07/10 10:39:20;;;;;;;;;;;32.50;72.80;;;;;;5087724;28;19928;-73
2022/07/10 10:41:52;;;;;;;;;;;32.60;72.30;;;;;;5093345;28;19995;-73
2022/07/10 10:44:18;;;;;;;;;;;32.60;71.90;;;;;;5091306;28;19919;-73
2022/07/10 10:46:50;;;;;;;;;;;32.50;72.60;;;;;;5093362;28;20315;-73
2022/07/10 10:49:17;;;;;;;;;;;32.50;72.40;;;;;;5093249;28;19904;-73
2022/07/10 10:52:06;;;;;;;;;;;32.40;73.40;;;;;;5093195;28;19904;-72
2022/07/10 10:54:52;;;;;;;;;;;32.70;74.70;;;;;;5091712;28;19953;-73
2022/07/10 10:57:18;;;;;;;;;;;32.90;74.80;;;;;;5092206;28;19908;-73
2022/07/10 10:59:54;;;;;;;;;;;32.90;74.90;;;;;;5091537;28;19915;-73
2022/07/10 11:02:20;;;;;;;;;;;32.80;75.10;;;;;;5093217;28;19904;-74
2022/07/10 11:04:46;;;;;;;;;;;32.90;73.90;;;;;;5092919;28;19912;-72
2022/07/10 11:07:12;;;;;;;;;;;32.70;75.50;;;;;;5092833;28;20285;-72
2022/07/10 11:10:13;;;;;;;;;;;32.80;75.20;;;;;;5091270;28;19904;-74
2022/07/10 11:13:00;;;;;;;;;;;33.00;73.80;;;;;;5092483;28;20068;-74
2022/07/10 11:15:29;;;;;;;;;;;33.20;74.00;;;;;;5091101;28;19904;-73
2022/07/10 11:18:05;;;;;;;;;;;33.50;73.60;;;;;;5091275;28;19966;-73
2022/07/10 11:20:35;;;;;;;;;;;33.60;73.40;;;;;;5090721;28;20014;-74
2022/07/10 11:23:19;;;;;;;;;;;33.90;73.60;;;;;;5092604;28;19940;-74
2022/07/10 11:26:00;;;;;;;;;;;33.70;73.60;;;;;;5092684;28;20391;-74
2022/07/10 11:28:28;;;;;;;;;;;33.60;72.90;;;;;;5092537;28;19923;-73
2022/07/10 11:30:54;;;;;;;;;;;33.60;74.60;;;;;;5092054;28;19970;-73
2022/07/10 11:33:21;;;;;;;;;;;33.30;75.00;;;;;;5092687;28;19916;-73
2022/07/10 11:35:47;;;;;;;;;;;33.40;75.50;;;;;;5093011;28;19904;-74
2022/07/10 11:38:18;;;;;;;;;;;33.50;75.40;;;;;;5093173;28;19927;-74
2022/07/10 11:40:44;;;;;;;;;;;33.20;76.30;;;;;;5092678;28;19904;-73
2022/07/10 11:43:13;;;;;;;;;;;33.00;76.50;;;;;;5092566;28;20273;-73
2022/07/10 11:45:39;;;;;;;;;;;32.80;77.10;;;;;;5092099;28;19912;-73
2022/07/10 11:48:07;;;;;;;;;;;32.60;78.40;;;;;;5090713;28;19916;-73
2022/07/10 11:50:51;;;;;;;;;;;32.70;79.00;;;;;;5092066;28;20016;-73
2022/07/10 11:53:24;;;;;;;;;;;33.00;79.30;;;;;;5092267;28;19926;-73
2022/07/10 11:55:50;;;;;;;;;;;33.20;78.60;;;;;;5092296;28;20057;-73
2022/07/10 11:58:16;;;;;;;;;;;33.30;78.70;;;;;;5092082;28;19904;-74
2022/07/10 12:00:42;;;;;;;;;;;33.30;77.10;;;;;;5092635;28;19991;-73
2022/07/10 12:03:19;;;;;;;;;;;33.30;76.50;;;;;;5090842;28;19912;-74
2022/07/10 12:05:46;;;;;;;;;;;33.50;77.20;;;;;;5092257;28;19912;-73
2022/07/10 12:08:13;;;;;;;;;;;33.30;76.00;;;;;;5091950;28;19907;-73
2022/07/10 12:10:41;;;;;;;;;;;33.50;75.80;;;;;;5092032;28;19904;-73
2022/07/10 12:13:08;;;;;;;;;;;33.70;75.30;;;;;;5091844;28;19916;-73
2022/07/10 12:15:38;;;;;;;;;;;33.80;75.10;;;;;;5091949;28;19948;-74
2022/07/10 12:18:05;;;;;;;;;;;33.70;75.70;;;;;;5092228;28;19903;-74
2022/07/10 12:20:32;;;;;;;;;;;33.50;74.90;;;;;;5092052;28;19904;-73
2022/07/10 12:22:58;;;;;;;;;;;33.00;75.00;;;;;;5091808;28;19907;-73
2022/07/10 12:25:24;;;;;;;;;;;33.00;75.80;;;;;;5091587;28;19999;-73
2022/07/10 12:27:55;;;;;;;;;;;33.00;76.00;;;;;;5092035;28;19904;-73
2022/07/10 12:30:20;;;;;;;;;;;32.80;76.00;;;;;;5091768;28;19904;-72
2022/07/10 12:32:46;;;;;;;;;;;33.00;75.40;;;;;;5091762;28;19960;-73
2022/07/10 12:35:15;;;;;;;;;;;33.20;75.30;;;;;;5092077;28;19911;-73
2022/07/10 12:37:50;;;;;;;;;;;33.20;75.10;;;;;;5091957;28;19911;-73
2022/07/10 12:40:32;;;;;;;;;;;33.30;74.40;;;;;;5092094;28;19908;-73
2022/07/10 12:43:02;;;;;;;;;;;33.00;75.80;;;;;;5091796;28;19950;-73
2022/07/10 12:45:28;;;;;;;;;;;32.90;75.90;;;;;;5091946;28;19955;-73
2022/07/10 12:47:53;;;;;;;;;;;32.90;75.40;;;;;;5091742;28;20326;-73
2022/07/10 12:50:20;;;;;;;;;;;33.00;74.80;;;;;;5089975;28;19904;-73
2022/07/10 12:52:46;;;;;;;;;;;33.30;75.10;;;;;;5091677;28;19904;-73
2022/07/10 12:55:15;;;;;;;;;;;33.30;74.80;;;;;;5091839;28;19908;-73
2022/07/10 12:57:45;;;;;;;;;;;33.00;75.20;;;;;;5092053;28;20266;-73
2022/07/10 13:00:13;;;;;;;;;;;33.10;76.00;;;;;;5091668;28;19969;-73
2022/07/10 13:02:39;;;;;;;;;;;33.20;76.60;;;;;;5091401;28;19999;-73
2022/07/10 13:05:05;;;;;;;;;;;33.50;76.70;;;;;;5089962;28;20006;-74
2022/07/10 13:07:35;;;;;;;;;;;33.40;77.20;;;;;;5091775;28;19910;-74
2022/07/10 13:10:01;;;;;;;;;;;33.40;77.20;;;;;;5092152;28;20264;-73
2022/07/10 13:12:27;;;;;;;;;;;33.30;77.80;;;;;;5091554;28;19919;-74
2022/07/10 13:14:53;;;;;;;;;;;33.20;79.50;;;;;;5090036;28;20014;-74
2022/07/10 13:17:19;;;;;;;;;;;32.60;82.70;;;;;;5091505;28;19986;-74
2022/07/10 13:19:45;;;;;;;;;;;32.30;85.00;;;;;;5091390;28;20308;-74
2022/07/10 13:22:11;;;;;;;;;;;32.20;87.10;;;;;;5095399;28;20002;-72
2022/07/10 13:24:36;;;;;;;;;;;31.90;87.70;;;;;;5095180;28;20002;-72
2022/07/10 13:27:02;;;;;;;;;;;31.70;88.70;;;;;;5094918;28;19919;-73
2022/07/10 13:29:28;;;;;;;;;;;31.80;89.90;;;;;;5094915;28;20351;-72
2022/07/10 13:31:54;;;;;;;;;;;31.90;87.60;;;;;;5095117;28;19944;-73
2022/07/10 13:34:20;;;;;;;;;;;31.80;88.30;;;;;;5095029;28;19991;-73
2022/07/10 13:36:45;;;;;;;;;;;31.90;88.60;;;;;;5093440;28;20347;-73
2022/07/10 13:39:11;;;;;;;;;;;32.00;88.50;;;;;;5092863;28;19957;-73
2022/07/10 13:41:43;;;;;;;;;;;32.20;88.20;;;;;;5093924;28;19915;-73
2022/07/10 13:44:09;;;;;;;;;;;32.30;87.50;;;;;;5094653;28;20390;-73
2022/07/10 13:46:37;;;;;;;;;;;32.20;86.80;;;;;;5094662;28;19909;-73
2022/07/10 13:49:03;;;;;;;;;;;31.90;87.70;;;;;;5094600;28;20255;-72
2022/07/10 13:51:29;;;;;;;;;;;32.00;88.10;;;;;;5094535;28;20225;-74
2022/07/10 13:53:55;;;;;;;;;;;32.00;88.20;;;;;;5094925;28;19911;-74
2022/07/10 13:56:21;;;;;;;;;;;32.10;87.40;;;;;;5094796;28;19913;-73
2022/07/10 13:58:47;;;;;;;;;;;32.20;88.20;;;;;;5094700;28;19911;-73
2022/07/10 14:01:13;;;;;;;;;;;32.30;90.00;;;;;;5094559;28;19957;-72
2022/07/10 14:03:38;;;;;;;;;;;32.10;90.40;;;;;;5094372;28;19911;-73
2022/07/10 14:06:04;;;;;;;;;;;31.80;90.90;;;;;;5094147;28;19974;-73
2022/07/10 14:08:30;;;;;;;;;;;31.60;91.40;;;;;;5094655;28;19904;-73
2022/07/10 14:10:56;;;;;;;;;;;31.30;92.00;;;;;;5093903;28;20210;-72
2022/07/10 14:13:22;;;;;;;;;;;31.20;92.10;;;;;;5094448;28;20296;-73
2022/07/10 14:15:48;;;;;;;;;;;30.90;92.90;;;;;;5093977;28;19990;-73
2022/07/10 14:18:34;;;;;;;;;;;31.10;93.00;;;;;;5092854;28;19904;-73
2022/07/10 14:21:03;;;;;;;;;;;30.60;93.50;;;;;;5094354;28;19946;-73
2022/07/10 14:23:29;;;;;;;;;;;30.20;94.40;;;;;;5092895;28;19904;-73
2022/07/10 14:25:54;;;;;;;;;;;30.30;94.50;;;;;;5094704;28;19908;-73
2022/07/10 14:28:20;;;;;;;;;;;30.10;94.30;;;;;;5094251;28;19904;-73
2022/07/10 14:30:46;;;;;;;;;;;30.30;94.60;;;;;;5094311;28;19976;-74
2022/07/10 14:33:13;;;;;;;;;;;30.60;94.00;;;;;;5094370;28;20000;-73